logo dgac
Martes 21 de Septiembre del 2021
Buscar por aerodromo o helipuerto
Ingrese nombre de aeródromo, localidad o designador OACI:

Aeródromo: General Bernardo O'Higgins (PUB) (SCCH)

Ubicación: Chillán, VIII Región, Chile (36º 34' 58'' S, 72º 01' 54'' W) Ver ubicación en el mapa

Pistas

Orientación Dimensión Pendiente Superficie Resistencia APCH THR RWY PAPI
04/22 1750 X 30 0,10 ASPH PCN 54 F/D/X/T No Sí (3º)
Horas de operación HJ
Elevación 152 m / 499 ft
Otra Información Adm : D.G.A.C
Uso : PUB
ubicado : 7 km E Chillán
TEL 422221655
email : aro.chillan@dgac.gob.cl

Otra información ver AIP-Chile Volumen I AD 3.9-3.8-C

CCCM/FCCV Descargar
andera de Chile
Mapa de General  Bernardo O'Higgins (PUB) (SCCH)

Último METAR

METAR SCCH 211000Z AUTO 07005KT //// R/////// ///////// 03/// Q1012

Último TAF

TAF SCCH 211100Z 2112/2124 18004KT CAVOK TX18/2117Z TN04/2112Z BECMG 2115/2117 22013KT

Últimas fotos cámaras

Imagen aerodromo General  Bernardo O'Higgins (PUB) (SCCH) N-Este tomada el 21-09-2021 10:58:00 Imagen aerodromo General  Bernardo O'Higgins (PUB) (SCCH) S-Este tomada el 21-09-2021 10:58:27

Último NOTAM

C4159/21 NOTAMN Q)SCEZ/QFUAU/IV/NBO/A/000/999/3635S07202W005 A)SCCH B)2109191321 C)2109221500 E)AVGAS 100LL NO AVBL